sensor_id;sensor_type;location;lat;lon;timestamp;pressure;altitude;pressure_sealevel;temperature;humidity
80118;BME280;69424;48.770;-1.564;2023-05-16T00:01:01;102415.14;;;8.89;80.19
80118;BME280;69424;48.770;-1.564;2023-05-16T00:03:29;102419.49;;;8.88;79.94
80118;BME280;69424;48.770;-1.564;2023-05-16T00:05:57;102414.35;;;8.88;80.03
80118;BME280;69424;48.770;-1.564;2023-05-16T00:08:26;102417.82;;;8.90;79.95
80118;BME280;69424;48.770;-1.564;2023-05-16T00:10:54;102419.16;;;8.93;79.83
80118;BME280;69424;48.770;-1.564;2023-05-16T00:13:22;102419.54;;;8.93;79.81
80118;BME280;69424;48.770;-1.564;2023-05-16T00:15:53;102417.19;;;8.92;79.64
80118;BME280;69424;48.770;-1.564;2023-05-16T00:18:22;102414.35;;;8.88;79.52
80118;BME280;69424;48.770;-1.564;2023-05-16T00:20:50;102411.52;;;8.87;79.21
80118;BME280;69424;48.770;-1.564;2023-05-16T00:23:19;102410.27;;;8.91;79.30
80118;BME280;69424;48.770;-1.564;2023-05-16T00:25:47;102411.71;;;8.96;79.02
80118;BME280;69424;48.770;-1.564;2023-05-16T00:28:16;102410.03;;;9.02;78.79
80118;BME280;69424;48.770;-1.564;2023-05-16T00:30:44;102411.62;;;9.06;78.63
80118;BME280;69424;48.770;-1.564;2023-05-16T00:33:12;102416.24;;;9.07;78.47
80118;BME280;69424;48.770;-1.564;2023-05-16T00:35:40;102411.11;;;9.03;78.70
80118;BME280;69424;48.770;-1.564;2023-05-16T00:38:08;102410.27;;;8.95;78.57
80118;BME280;69424;48.770;-1.564;2023-05-16T00:40:37;102412.19;;;8.91;78.61
80118;BME280;69424;48.770;-1.564;2023-05-16T00:43:06;102407.92;;;8.86;78.19
80118;BME280;69424;48.770;-1.564;2023-05-16T00:45:34;102405.09;;;8.81;78.23
80118;BME280;69424;48.770;-1.564;2023-05-16T00:48:02;102401.98;;;8.75;77.97
80118;BME280;69424;48.770;-1.564;2023-05-16T00:50:32;102402.86;;;8.66;78.18
80118;BME280;69424;48.770;-1.564;2023-05-16T00:53:01;102403.59;;;8.51;78.41
80118;BME280;69424;48.770;-1.564;2023-05-16T00:55:29;102402.86;;;8.35;78.56
80118;BME280;69424;48.770;-1.564;2023-05-16T00:57:58;102404.82;;;8.23;79.02
80118;BME280;69424;48.770;-1.564;2023-05-16T01:00:30;102401.47;;;8.12;79.10
80118;BME280;69424;48.770;-1.564;2023-05-16T01:02:58;102402.41;;;8.01;79.35
80118;BME280;69424;48.770;-1.564;2023-05-16T01:05:28;102401.36;;;7.94;79.71
80118;BME280;69424;48.770;-1.564;2023-05-16T01:07:56;102406.61;;;7.86;79.56
80118;BME280;69424;48.770;-1.564;2023-05-16T01:10:31;102408.73;;;7.79;79.71
80118;BME280;69424;48.770;-1.564;2023-05-16T01:13:21;102407.30;;;7.74;79.99
80118;BME280;69424;48.770;-1.564;2023-05-16T01:22:02;102409.40;;;7.44;80.10
80118;BME280;69424;48.770;-1.564;2023-05-16T01:24:38;102410.58;;;7.36;80.28
80118;BME280;69424;48.770;-1.564;2023-05-16T01:27:10;102409.09;;;7.31;80.49
80118;BME280;69424;48.770;-1.564;2023-05-16T01:29:40;102407.61;;;7.29;80.21
80118;BME280;69424;48.770;-1.564;2023-05-16T01:32:08;102408.41;;;7.24;80.24
80118;BME280;69424;48.770;-1.564;2023-05-16T01:34:36;102406.63;;;7.16;80.43
80118;BME280;69424;48.770;-1.564;2023-05-16T01:37:12;102400.59;;;7.11;80.46
80118;BME280;69424;48.770;-1.564;2023-05-16T01:39:47;102397.59;;;7.08;80.24
80118;BME280;69424;48.770;-1.564;2023-05-16T01:42:20;102396.30;;;7.00;80.49
80118;BME280;69424;48.770;-1.564;2023-05-16T01:45:14;102400.30;;;6.88;80.88
80118;BME280;69424;48.770;-1.564;2023-05-16T01:47:51;102400.42;;;6.73;81.08
80118;BME280;69424;48.770;-1.564;2023-05-16T01:50:21;102401.98;;;6.66;81.12
80118;BME280;69424;48.770;-1.564;2023-05-16T01:55:44;102402.34;;;6.59;81.58
80118;BME280;69424;48.770;-1.564;2023-05-16T01:58:14;102399.68;;;6.55;81.37
80118;BME280;69424;48.770;-1.564;2023-05-16T02:00:42;102405.55;;;6.50;81.53
80118;BME280;69424;48.770;-1.564;2023-05-16T02:03:12;102404.96;;;6.46;81.86
80118;BME280;69424;48.770;-1.564;2023-05-16T02:05:40;102406.20;;;6.42;81.86
80118;BME280;69424;48.770;-1.564;2023-05-16T02:08:12;102406.04;;;6.39;81.60
80118;BME280;69424;48.770;-1.564;2023-05-16T02:10:41;102404.52;;;6.34;81.72
80118;BME280;69424;48.770;-1.564;2023-05-16T02:13:10;102408.48;;;6.26;81.94
80118;BME280;69424;48.770;-1.564;2023-05-16T02:15:38;102409.65;;;6.21;82.19
80118;BME280;69424;48.770;-1.564;2023-05-16T02:18:06;102410.68;;;6.20;82.21
80118;BME280;69424;48.770;-1.564;2023-05-16T02:20:34;102411.83;;;6.19;81.93
80118;BME280;69424;48.770;-1.564;2023-05-16T02:23:02;102410.61;;;6.19;81.90
80118;BME280;69424;48.770;-1.564;2023-05-16T02:25:32;102410.13;;;6.20;81.89
80118;BME280;69424;48.770;-1.564;2023-05-16T02:28:00;102409.79;;;6.20;82.05
80118;BME280;69424;48.770;-1.564;2023-05-16T02:30:28;102407.09;;;6.19;81.87
80118;BME280;69424;48.770;-1.564;2023-05-16T02:32:56;102407.02;;;6.15;81.49
80118;BME280;69424;48.770;-1.564;2023-05-16T02:35:24;102405.05;;;6.11;81.78
80118;BME280;69424;48.770;-1.564;2023-05-16T02:37:53;102404.73;;;6.08;81.42
80118;BME280;69424;48.770;-1.564;2023-05-16T02:40:21;102406.88;;;6.05;81.81
80118;BME280;69424;48.770;-1.564;2023-05-16T02:42:49;102411.73;;;6.04;81.94
80118;BME280;69424;48.770;-1.564;2023-05-16T02:45:17;102415.02;;;6.00;82.28
80118;BME280;69424;48.770;-1.564;2023-05-16T02:47:45;102412.48;;;5.93;82.44
80118;BME280;69424;48.770;-1.564;2023-05-16T02:50:13;102417.11;;;5.87;82.43
80118;BME280;69424;48.770;-1.564;2023-05-16T02:52:41;102419.91;;;5.84;82.66
80118;BME280;69424;48.770;-1.564;2023-05-16T02:55:09;102418.81;;;5.80;82.66
80118;BME280;69424;48.770;-1.564;2023-05-16T02:57:49;102421.73;;;5.76;82.62
80118;BME280;69424;48.770;-1.564;2023-05-16T03:00:18;102427.21;;;5.70;82.78
80118;BME280;69424;48.770;-1.564;2023-05-16T03:02:47;102437.08;;;5.61;82.73
80118;BME280;69424;48.770;-1.564;2023-05-16T03:05:16;102441.63;;;5.55;82.92
80118;BME280;69424;48.770;-1.564;2023-05-16T03:07:45;102441.52;;;5.56;83.05
80118;BME280;69424;48.770;-1.564;2023-05-16T03:10:13;102438.60;;;5.60;82.97
80118;BME280;69424;48.770;-1.564;2023-05-16T03:12:41;102435.36;;;5.65;83.10
80118;BME280;69424;48.770;-1.564;2023-05-16T03:15:09;102433.03;;;5.71;83.19
80118;BME280;69424;48.770;-1.564;2023-05-16T03:17:37;102435.11;;;5.76;82.80
80118;BME280;69424;48.770;-1.564;2023-05-16T03:20:06;102433.23;;;5.80;82.69
80118;BME280;69424;48.770;-1.564;2023-05-16T03:22:36;102432.98;;;5.79;82.96
80118;BME280;69424;48.770;-1.564;2023-05-16T03:25:04;102438.38;;;5.72;82.41
80118;BME280;69424;48.770;-1.564;2023-05-16T03:27:32;102439.49;;;5.64;82.87
80118;BME280;69424;48.770;-1.564;2023-05-16T03:30:00;102444.48;;;5.59;82.84
80118;BME280;69424;48.770;-1.564;2023-05-16T03:32:29;102444.77;;;5.55;82.84
80118;BME280;69424;48.770;-1.564;2023-05-16T03:34:57;102440.92;;;5.55;82.82
80118;BME280;69424;48.770;-1.564;2023-05-16T03:37:26;102440.23;;;5.55;82.66
80118;BME280;69424;48.770;-1.564;2023-05-16T03:39:54;102441.92;;;5.54;82.48
80118;BME280;69424;48.770;-1.564;2023-05-16T03:42:22;102438.86;;;5.52;82.85
80118;BME280;69424;48.770;-1.564;2023-05-16T03:44:50;102443.14;;;5.54;83.22
80118;BME280;69424;48.770;-1.564;2023-05-16T03:47:18;102438.74;;;5.54;82.67
80118;BME280;69424;48.770;-1.564;2023-05-16T03:49:47;102434.87;;;5.53;83.07
80118;BME280;69424;48.770;-1.564;2023-05-16T03:52:15;102431.52;;;5.50;82.68
80118;BME280;69424;48.770;-1.564;2023-05-16T03:54:43;102430.89;;;5.45;82.63
80118;BME280;69424;48.770;-1.564;2023-05-16T03:57:11;102431.18;;;5.41;82.85
80118;BME280;69424;48.770;-1.564;2023-05-16T03:59:39;102433.08;;;5.40;82.81
80118;BME280;69424;48.770;-1.564;2023-05-16T04:02:07;102432.00;;;5.40;82.58
80118;BME280;69424;48.770;-1.564;2023-05-16T04:04:36;102434.40;;;5.42;83.13
80118;BME280;69424;48.770;-1.564;2023-05-16T04:07:04;102435.42;;;5.44;82.57
80118;BME280;69424;48.770;-1.564;2023-05-16T04:09:33;102432.02;;;5.43;82.88
80118;BME280;69424;48.770;-1.564;2023-05-16T04:12:01;102438.09;;;5.39;82.49
80118;BME280;69424;48.770;-1.564;2023-05-16T04:14:30;102444.38;;;5.35;82.43
80118;BME280;69424;48.770;-1.564;2023-05-16T04:16:58;102445.88;;;5.34;82.56
80118;BME280;69424;48.770;-1.564;2023-05-16T04:19:27;102445.17;;;5.34;82.62
80118;BME280;69424;48.770;-1.564;2023-05-16T04:21:55;102440.82;;;5.34;82.60
80118;BME280;69424;48.770;-1.564;2023-05-16T04:24:23;102437.52;;;5.35;82.69
80118;BME280;69424;48.770;-1.564;2023-05-16T04:26:53;102439.73;;;5.37;82.32
80118;BME280;69424;48.770;-1.564;2023-05-16T04:29:22;102442.48;;;5.39;82.56
80118;BME280;69424;48.770;-1.564;2023-05-16T04:31:50;102443.02;;;5.39;82.71
80118;BME280;69424;48.770;-1.564;2023-05-16T04:34:18;102443.92;;;5.37;82.69
80118;BME280;69424;48.770;-1.564;2023-05-16T04:36:46;102446.52;;;5.33;82.68
80118;BME280;69424;48.770;-1.564;2023-05-16T04:39:14;102447.86;;;5.32;82.84
80118;BME280;69424;48.770;-1.564;2023-05-16T04:41:42;102446.59;;;5.34;83.07
80118;BME280;69424;48.770;-1.564;2023-05-16T04:44:10;102447.05;;;5.36;82.94
80118;BME280;69424;48.770;-1.564;2023-05-16T04:46:39;102445.93;;;5.38;82.76
80118;BME280;69424;48.770;-1.564;2023-05-16T04:49:07;102446.25;;;5.43;82.78
80118;BME280;69424;48.770;-1.564;2023-05-16T04:51:35;102449.33;;;5.48;82.34
80118;BME280;69424;48.770;-1.564;2023-05-16T04:54:03;102448.94;;;5.48;82.42
80118;BME280;69424;48.770;-1.564;2023-05-16T04:56:31;102448.23;;;5.47;82.49
80118;BME280;69424;48.770;-1.564;2023-05-16T04:58:59;102445.69;;;5.46;82.54
80118;BME280;69424;48.770;-1.564;2023-05-16T05:01:27;102444.52;;;5.44;82.55
80118;BME280;69424;48.770;-1.564;2023-05-16T05:03:55;102448.67;;;5.43;82.43
80118;BME280;69424;48.770;-1.564;2023-05-16T05:06:24;102446.84;;;5.47;82.53
80118;BME280;69424;48.770;-1.564;2023-05-16T05:08:52;102452.13;;;5.51;82.35
80118;BME280;69424;48.770;-1.564;2023-05-16T05:11:21;102450.47;;;5.56;82.49
80118;BME280;69424;48.770;-1.564;2023-05-16T05:13:50;102445.77;;;5.66;82.27
80118;BME280;69424;48.770;-1.564;2023-05-16T05:16:19;102439.77;;;5.75;81.85
80118;BME280;69424;48.770;-1.564;2023-05-16T05:18:48;102443.89;;;5.79;81.78
80118;BME280;69424;48.770;-1.564;2023-05-16T05:21:16;102444.27;;;5.83;82.16
80118;BME280;69424;48.770;-1.564;2023-05-16T05:23:45;102441.85;;;5.87;81.99
80118;BME280;69424;48.770;-1.564;2023-05-16T05:26:13;102445.21;;;5.87;81.84
80118;BME280;69424;48.770;-1.564;2023-05-16T05:28:42;102449.44;;;5.91;81.94
80118;BME280;69424;48.770;-1.564;2023-05-16T05:31:20;102451.48;;;6.09;82.09
80118;BME280;69424;48.770;-1.564;2023-05-16T05:33:48;102452.91;;;6.72;81.83
80118;BME280;69424;48.770;-1.564;2023-05-16T05:36:17;102453.84;;;7.64;82.51
80118;BME280;69424;48.770;-1.564;2023-05-16T05:38:45;102456.25;;;8.54;82.62
80118;BME280;69424;48.770;-1.564;2023-05-16T05:41:13;102455.83;;;9.38;81.81
80118;BME280;69424;48.770;-1.564;2023-05-16T05:43:41;102454.36;;;10.18;80.10
80118;BME280;69424;48.770;-1.564;2023-05-16T05:46:09;102457.48;;;10.93;78.36
80118;BME280;69424;48.770;-1.564;2023-05-16T05:48:37;102461.56;;;11.61;77.21
80118;BME280;69424;48.770;-1.564;2023-05-16T05:51:05;102459.05;;;12.18;76.68
80118;BME280;69424;48.770;-1.564;2023-05-16T05:53:33;102457.95;;;12.65;74.56
80118;BME280;69424;48.770;-1.564;2023-05-16T05:56:01;102459.72;;;13.11;73.94
80118;BME280;69424;48.770;-1.564;2023-05-16T05:58:29;102458.77;;;13.57;70.91
80118;BME280;69424;48.770;-1.564;2023-05-16T06:00:57;102463.95;;;14.04;69.23
80118;BME280;69424;48.770;-1.564;2023-05-16T06:03:26;102469.70;;;14.49;67.34
80118;BME280;69424;48.770;-1.564;2023-05-16T06:05:54;102472.83;;;14.89;64.83
80118;BME280;69424;48.770;-1.564;2023-05-16T06:08:22;102475.12;;;15.28;62.44
80118;BME280;69424;48.770;-1.564;2023-05-16T06:10:50;102480.16;;;15.62;60.63
80118;BME280;69424;48.770;-1.564;2023-05-16T06:13:19;102478.90;;;15.94;59.40
80118;BME280;69424;48.770;-1.564;2023-05-16T06:15:51;102477.97;;;16.18;57.91
80118;BME280;69424;48.770;-1.564;2023-05-16T06:18:20;102477.55;;;16.26;57.35
80118;BME280;69424;48.770;-1.564;2023-05-16T06:20:48;102478.11;;;16.29;56.86
80118;BME280;69424;48.770;-1.564;2023-05-16T06:23:17;102483.62;;;16.26;56.63
80118;BME280;69424;48.770;-1.564;2023-05-16T06:25:48;102481.52;;;16.17;56.99
80118;BME280;69424;48.770;-1.564;2023-05-16T06:28:16;102483.48;;;16.16;57.14
80118;BME280;69424;48.770;-1.564;2023-05-16T06:30:43;102483.31;;;16.16;57.31
80118;BME280;69424;48.770;-1.564;2023-05-16T06:33:13;102484.32;;;16.12;57.20
80118;BME280;69424;48.770;-1.564;2023-05-16T06:35:42;102490.52;;;15.97;57.40
80118;BME280;69424;48.770;-1.564;2023-05-16T06:38:10;102495.66;;;15.82;58.10
80118;BME280;69424;48.770;-1.564;2023-05-16T06:40:38;102500.95;;;15.69;58.61
80118;BME280;69424;48.770;-1.564;2023-05-16T06:43:06;102499.70;;;15.58;59.16
80118;BME280;69424;48.770;-1.564;2023-05-16T06:45:35;102501.30;;;15.47;59.55
80118;BME280;69424;48.770;-1.564;2023-05-16T06:48:03;102506.35;;;15.39;60.58
80118;BME280;69424;48.770;-1.564;2023-05-16T06:50:32;102508.78;;;15.35;61.29
80118;BME280;69424;48.770;-1.564;2023-05-16T06:53:02;102509.81;;;15.35;61.71
80118;BME280;69424;48.770;-1.564;2023-05-16T06:55:34;102511.02;;;15.31;61.60
80118;BME280;69424;48.770;-1.564;2023-05-16T06:58:02;102509.90;;;15.28;62.46
80118;BME280;69424;48.770;-1.564;2023-05-16T07:00:31;102509.85;;;15.26;62.12
80118;BME280;69424;48.770;-1.564;2023-05-16T07:03:00;102512.48;;;15.23;60.67
80118;BME280;69424;48.770;-1.564;2023-05-16T07:05:28;102517.09;;;15.12;60.76
80118;BME280;69424;48.770;-1.564;2023-05-16T07:07:56;102517.09;;;15.02;61.28
80118;BME280;69424;48.770;-1.564;2023-05-16T07:10:25;102521.29;;;14.99;61.89
80118;BME280;69424;48.770;-1.564;2023-05-16T07:12:54;102522.39;;;14.99;62.67
80118;BME280;69424;48.770;-1.564;2023-05-16T07:15:22;102523.44;;;14.99;62.32
80118;BME280;69424;48.770;-1.564;2023-05-16T07:17:51;102526.57;;;14.95;62.09
80118;BME280;69424;48.770;-1.564;2023-05-16T07:20:19;102527.42;;;14.93;61.76
80118;BME280;69424;48.770;-1.564;2023-05-16T07:22:48;102526.18;;;14.93;60.91
80118;BME280;69424;48.770;-1.564;2023-05-16T07:25:16;102525.29;;;14.93;59.89
80118;BME280;69424;48.770;-1.564;2023-05-16T07:27:44;102533.70;;;14.95;59.53
80118;BME280;69424;48.770;-1.564;2023-05-16T07:30:12;102526.74;;;15.04;59.51
80118;BME280;69424;48.770;-1.564;2023-05-16T07:32:41;102524.36;;;15.10;59.15
80118;BME280;69424;48.770;-1.564;2023-05-16T07:35:10;102526.48;;;15.18;59.50
80118;BME280;69424;48.770;-1.564;2023-05-16T07:37:40;102529.79;;;15.25;57.64
80118;BME280;69424;48.770;-1.564;2023-05-16T07:40:10;102529.69;;;15.29;57.58
80118;BME280;69424;48.770;-1.564;2023-05-16T07:42:39;102536.93;;;15.35;57.27
80118;BME280;69424;48.770;-1.564;2023-05-16T07:45:07;102541.67;;;15.41;56.95
80118;BME280;69424;48.770;-1.564;2023-05-16T07:47:36;102542.10;;;15.46;57.82
80118;BME280;69424;48.770;-1.564;2023-05-16T07:50:04;102545.88;;;15.47;57.29
80118;BME280;69424;48.770;-1.564;2023-05-16T07:52:33;102550.11;;;15.44;57.11
80118;BME280;69424;48.770;-1.564;2023-05-16T07:55:02;102549.51;;;15.40;57.09
80118;BME280;69424;48.770;-1.564;2023-05-16T07:57:30;102550.91;;;15.39;57.24
80118;BME280;69424;48.770;-1.564;2023-05-16T07:59:59;102548.87;;;15.34;56.17
80118;BME280;69424;48.770;-1.564;2023-05-16T08:02:27;102551.21;;;15.36;57.67
80118;BME280;69424;48.770;-1.564;2023-05-16T08:04:58;102552.73;;;15.42;57.23
80118;BME280;69424;48.770;-1.564;2023-05-16T08:07:26;102551.88;;;15.43;57.18
80118;BME280;69424;48.770;-1.564;2023-05-16T08:09:54;102551.54;;;15.45;57.64
80118;BME280;69424;48.770;-1.564;2023-05-16T08:12:22;102552.20;;;15.51;58.18
80118;BME280;69424;48.770;-1.564;2023-05-16T08:14:51;102552.28;;;15.56;57.36
80118;BME280;69424;48.770;-1.564;2023-05-16T08:17:19;102559.44;;;15.57;57.60
80118;BME280;69424;48.770;-1.564;2023-05-16T08:19:47;102559.34;;;15.63;57.70
80118;BME280;69424;48.770;-1.564;2023-05-16T08:22:16;102560.30;;;15.67;57.28
80118;BME280;69424;48.770;-1.564;2023-05-16T08:24:45;102555.77;;;15.73;58.15
80118;BME280;69424;48.770;-1.564;2023-05-16T08:27:13;102553.38;;;15.77;56.96
80118;BME280;69424;48.770;-1.564;2023-05-16T08:29:41;102552.23;;;15.74;56.67
80118;BME280;69424;48.770;-1.564;2023-05-16T08:32:09;102554.83;;;15.79;57.10
80118;BME280;69424;48.770;-1.564;2023-05-16T08:34:40;102554.54;;;15.83;56.86
80118;BME280;69424;48.770;-1.564;2023-05-16T08:37:08;102551.91;;;15.85;56.33
80118;BME280;69424;48.770;-1.564;2023-05-16T08:39:38;102554.30;;;15.90;57.16
80118;BME280;69424;48.770;-1.564;2023-05-16T08:42:07;102556.27;;;16.02;57.50
80118;BME280;69424;48.770;-1.564;2023-05-16T08:44:35;102559.81;;;16.12;57.67
80118;BME280;69424;48.770;-1.564;2023-05-16T08:47:11;102560.20;;;16.14;57.57
80118;BME280;69424;48.770;-1.564;2023-05-16T08:49:42;102566.41;;;16.11;58.57
80118;BME280;69424;48.770;-1.564;2023-05-16T08:52:12;102559.60;;;16.10;58.47
80118;BME280;69424;48.770;-1.564;2023-05-16T08:54:41;102562.23;;;16.06;58.10
80118;BME280;69424;48.770;-1.564;2023-05-16T08:57:10;102560.02;;;16.02;58.42
80118;BME280;69424;48.770;-1.564;2023-05-16T08:59:39;102560.89;;;16.01;58.21
80118;BME280;69424;48.770;-1.564;2023-05-16T09:02:08;102561.38;;;15.97;58.31
80118;BME280;69424;48.770;-1.564;2023-05-16T09:04:37;102565.41;;;15.93;59.27
80118;BME280;69424;48.770;-1.564;2023-05-16T09:07:05;102569.59;;;15.97;59.98
80118;BME280;69424;48.770;-1.564;2023-05-16T09:09:34;102571.36;;;16.08;60.51
80118;BME280;69424;48.770;-1.564;2023-05-16T09:12:02;102569.67;;;16.14;59.91
80118;BME280;69424;48.770;-1.564;2023-05-16T09:14:30;102571.63;;;16.14;60.01
80118;BME280;69424;48.770;-1.564;2023-05-16T09:17:06;102569.52;;;16.16;60.79
80118;BME280;69424;48.770;-1.564;2023-05-16T09:19:40;102573.53;;;16.22;61.25
80118;BME280;69424;48.770;-1.564;2023-05-16T09:22:13;102572.37;;;16.29;61.41
80118;BME280;69424;48.770;-1.564;2023-05-16T09:24:43;102573.47;;;16.31;60.85
80118;BME280;69424;48.770;-1.564;2023-05-16T09:27:13;102569.73;;;16.31;60.82
80118;BME280;69424;48.770;-1.564;2023-05-16T09:29:43;102570.84;;;16.33;61.75
80118;BME280;69424;48.770;-1.564;2023-05-16T09:32:15;102573.05;;;16.39;61.51
80118;BME280;69424;48.770;-1.564;2023-05-16T09:34:48;102578.48;;;16.43;61.64
80118;BME280;69424;48.770;-1.564;2023-05-16T09:37:18;102577.34;;;16.52;61.73
80118;BME280;69424;48.770;-1.564;2023-05-16T09:39:49;102572.11;;;16.62;61.49
80118;BME280;69424;48.770;-1.564;2023-05-16T09:42:18;102573.98;;;16.69;61.19
80118;BME280;69424;48.770;-1.564;2023-05-16T09:44:53;102573.77;;;16.80;59.90
80118;BME280;69424;48.770;-1.564;2023-05-16T09:47:21;102572.54;;;16.81;59.40
80118;BME280;69424;48.770;-1.564;2023-05-16T09:49:52;102570.61;;;16.83;59.40
80118;BME280;69424;48.770;-1.564;2023-05-16T09:52:21;102569.92;;;16.85;59.63
80118;BME280;69424;48.770;-1.564;2023-05-16T09:54:49;102570.70;;;16.89;58.21
80118;BME280;69424;48.770;-1.564;2023-05-16T09:57:18;102568.76;;;16.91;57.48
80118;BME280;69424;48.770;-1.564;2023-05-16T09:59:46;102571.42;;;16.89;57.14
80118;BME280;69424;48.770;-1.564;2023-05-16T10:02:15;102572.45;;;16.85;58.04
80118;BME280;69424;48.770;-1.564;2023-05-16T10:04:44;102569.27;;;16.89;58.31
80118;BME280;69424;48.770;-1.564;2023-05-16T10:07:13;102571.31;;;16.94;57.66
80118;BME280;69424;48.770;-1.564;2023-05-16T10:09:43;102570.61;;;16.96;57.31
80118;BME280;69424;48.770;-1.564;2023-05-16T10:12:14;102567.05;;;16.98;57.02
80118;BME280;69424;48.770;-1.564;2023-05-16T10:14:43;102568.88;;;17.00;57.29
80118;BME280;69424;48.770;-1.564;2023-05-16T10:17:13;102569.50;;;17.08;56.84
80118;BME280;69424;48.770;-1.564;2023-05-16T10:19:43;102568.23;;;17.06;57.07
80118;BME280;69424;48.770;-1.564;2023-05-16T10:22:12;102564.72;;;17.12;57.23
80118;BME280;69424;48.770;-1.564;2023-05-16T10:24:55;102565.91;;;17.24;56.22
80118;BME280;69424;48.770;-1.564;2023-05-16T10:27:26;102566.02;;;17.35;54.16
80118;BME280;69424;48.770;-1.564;2023-05-16T10:29:55;102562.12;;;17.38;54.89
80118;BME280;69424;48.770;-1.564;2023-05-16T10:32:25;102557.50;;;17.41;53.38
80118;BME280;69424;48.770;-1.564;2023-05-16T10:34:55;102562.00;;;17.45;52.96
80118;BME280;69424;48.770;-1.564;2023-05-16T10:37:24;102560.30;;;17.54;53.06
80118;BME280;69424;48.770;-1.564;2023-05-16T10:39:53;102559.09;;;17.57;50.64
80118;BME280;69424;48.770;-1.564;2023-05-16T10:42:21;102556.42;;;17.59;51.65
80118;BME280;69424;48.770;-1.564;2023-05-16T10:44:53;102558.23;;;17.60;51.99
80118;BME280;69424;48.770;-1.564;2023-05-16T10:47:32;102552.04;;;17.70;51.08
80118;BME280;69424;48.770;-1.564;2023-05-16T10:50:00;102553.15;;;17.75;50.54
80118;BME280;69424;48.770;-1.564;2023-05-16T10:52:33;102551.77;;;17.82;51.11
80118;BME280;69424;48.770;-1.564;2023-05-16T10:55:02;102551.52;;;17.93;50.38
80118;BME280;69424;48.770;-1.564;2023-05-16T10:57:32;102549.03;;;17.95;50.18
80118;BME280;69424;48.770;-1.564;2023-05-16T11:00:00;102547.09;;;17.99;51.51
80118;BME280;69424;48.770;-1.564;2023-05-16T11:02:31;102549.89;;;18.15;51.85
80118;BME280;69424;48.770;-1.564;2023-05-16T11:05:01;102551.39;;;18.26;51.20
80118;BME280;69424;48.770;-1.564;2023-05-16T11:07:34;102542.09;;;18.30;52.35
80118;BME280;69424;48.770;-1.564;2023-05-16T11:10:13;102545.63;;;18.19;52.67
80118;BME280;69424;48.770;-1.564;2023-05-16T11:12:48;102546.31;;;17.92;53.78
80118;BME280;69424;48.770;-1.564;2023-05-16T11:17:46;102547.36;;;17.48;54.68
80118;BME280;69424;48.770;-1.564;2023-05-16T11:20:44;102550.38;;;17.25;55.12
80118;BME280;69424;48.770;-1.564;2023-05-16T11:25:53;102554.34;;;16.69;56.78
80118;BME280;69424;48.770;-1.564;2023-05-16T11:28:26;102552.21;;;16.57;57.41
80118;BME280;69424;48.770;-1.564;2023-05-16T11:30:57;102549.55;;;16.71;57.47
80118;BME280;69424;48.770;-1.564;2023-05-16T11:33:30;102555.37;;;16.92;56.94
80118;BME280;69424;48.770;-1.564;2023-05-16T11:36:03;102549.84;;;17.08;57.48
80118;BME280;69424;48.770;-1.564;2023-05-16T11:38:43;102549.47;;;17.25;58.31
80118;BME280;69424;48.770;-1.564;2023-05-16T11:41:11;102552.75;;;17.49;58.04
80118;BME280;69424;48.770;-1.564;2023-05-16T11:43:44;102551.05;;;17.80;57.20
80118;BME280;69424;48.770;-1.564;2023-05-16T11:46:13;102548.21;;;18.06;56.20
80118;BME280;69424;48.770;-1.564;2023-05-16T11:48:43;102544.44;;;18.02;55.59
80118;BME280;69424;48.770;-1.564;2023-05-16T11:51:13;102543.91;;;17.82;54.22
80118;BME280;69424;48.770;-1.564;2023-05-16T11:53:49;102537.37;;;17.72;54.74
80118;BME280;69424;48.770;-1.564;2023-05-16T11:56:17;102537.59;;;17.75;54.53
80118;BME280;69424;48.770;-1.564;2023-05-16T11:58:49;102540.14;;;17.83;55.39
80118;BME280;69424;48.770;-1.564;2023-05-16T12:01:17;102535.68;;;17.83;55.02
80118;BME280;69424;48.770;-1.564;2023-05-16T12:03:53;102534.67;;;17.90;54.78
80118;BME280;69424;48.770;-1.564;2023-05-16T12:06:22;102538.46;;;17.92;55.16
80118;BME280;69424;48.770;-1.564;2023-05-16T12:08:51;102540.66;;;17.97;53.81
80118;BME280;69424;48.770;-1.564;2023-05-16T12:11:22;102543.50;;;17.96;54.26
80118;BME280;69424;48.770;-1.564;2023-05-16T12:13:50;102548.44;;;17.88;53.67
80118;BME280;69424;48.770;-1.564;2023-05-16T12:16:19;102556.90;;;17.74;53.97
80118;BME280;69424;48.770;-1.564;2023-05-16T12:18:47;102548.93;;;17.63;54.11
80118;BME280;69424;48.770;-1.564;2023-05-16T12:21:16;102554.06;;;17.55;53.90
80118;BME280;69424;48.770;-1.564;2023-05-16T12:23:44;102553.15;;;17.53;54.85
80118;BME280;69424;48.770;-1.564;2023-05-16T12:26:13;102549.20;;;17.52;55.98
80118;BME280;69424;48.770;-1.564;2023-05-16T12:28:42;102546.98;;;17.66;56.07
80118;BME280;69424;48.770;-1.564;2023-05-16T12:31:20;102544.83;;;17.85;55.66
80118;BME280;69424;48.770;-1.564;2023-05-16T12:33:52;102544.81;;;18.03;54.90
80118;BME280;69424;48.770;-1.564;2023-05-16T12:36:23;102541.98;;;18.11;54.69
80118;BME280;69424;48.770;-1.564;2023-05-16T12:38:52;102542.67;;;18.08;54.52
80118;BME280;69424;48.770;-1.564;2023-05-16T12:41:21;102547.70;;;18.08;53.06
80118;BME280;69424;48.770;-1.564;2023-05-16T12:43:49;102543.52;;;17.99;51.87
80118;BME280;69424;48.770;-1.564;2023-05-16T12:46:18;102547.73;;;17.88;52.19
80118;BME280;69424;48.770;-1.564;2023-05-16T12:48:47;102546.13;;;17.88;53.20
80118;BME280;69424;48.770;-1.564;2023-05-16T12:51:17;102544.90;;;17.92;52.52
80118;BME280;69424;48.770;-1.564;2023-05-16T12:53:47;102544.39;;;17.95;52.51
80118;BME280;69424;48.770;-1.564;2023-05-16T12:56:39;102550.09;;;17.93;51.64
80118;BME280;69424;48.770;-1.564;2023-05-16T12:59:08;102546.60;;;17.84;51.90
80118;BME280;69424;48.770;-1.564;2023-05-16T13:01:37;102548.00;;;17.81;52.97
80118;BME280;69424;48.770;-1.564;2023-05-16T13:04:05;102548.37;;;17.82;52.90
80118;BME280;69424;48.770;-1.564;2023-05-16T13:06:34;102544.77;;;17.76;52.04
80118;BME280;69424;48.770;-1.564;2023-05-16T13:09:23;102538.92;;;17.84;52.98
80118;BME280;69424;48.770;-1.564;2023-05-16T13:11:51;102544.77;;;17.99;51.98